Time;durP1;ratioP1;P1;durP2;ratioP2;P2;SDS_P1;SDS_P2;PMS_P1;PMS_P2;Temp;Humidity;BMP_temperature;BMP_pressure;BME280_temperature;BME280_humidity;BME280_pressure;Samples;Min_cycle;Max_cycle;Signal;HPM_P1;HPM_P2
2022/07/20 00:00:05;;;;;;;5.55;4.20;;;16.50;99.90;;;;;;20969916;28;20036;-59
2022/07/20 00:20:34;;;;;;;5.57;4.03;;;16.70;99.90;;;;;;21053312;28;20044;-58
2022/07/20 00:30:36;;;;;;;4.75;4.18;;;16.80;99.90;;;;;;21068386;28;20381;-57
2022/07/20 00:40:38;;;;;;;4.47;3.67;;;16.70;99.90;;;;;;20997858;28;20036;-59
2022/07/20 00:50:41;;;;;;;5.30;3.75;;;16.60;99.90;;;;;;21029687;28;20028;-59
2022/07/20 01:00:44;;;;;;;4.72;3.75;;;16.40;99.90;;;;;;21049720;28;20089;-59
2022/07/20 01:10:47;;;;;;;7.75;3.75;;;16.30;99.90;;;;;;21049260;28;20090;-59
2022/07/20 01:20:51;;;;;;;4.60;3.60;;;16.20;99.90;;;;;;21049049;28;20097;-59
2022/07/20 01:30:53;;;;;;;4.50;3.85;;;16.20;99.90;;;;;;21048996;28;20085;-59
2022/07/20 01:40:55;;;;;;;5.45;3.90;;;16.20;99.90;;;;;;21048223;28;20040;-59
2022/07/20 01:50:57;;;;;;;4.50;3.95;;;16.10;99.90;;;;;;20981973;28;20126;-58
2022/07/20 02:01:00;;;;;;;4.93;3.90;;;16.10;99.90;;;;;;20972086;28;20032;-59
2022/07/20 02:11:03;;;;;;;4.57;3.83;;;16.00;99.90;;;;;;20978156;28;20143;-59
2022/07/20 02:21:05;;;;;;;6.57;3.97;;;15.90;99.90;;;;;;20978090;28;20550;-59
2022/07/20 02:31:08;;;;;;;6.88;3.65;;;15.90;99.90;;;;;;20977338;28;20032;-59
2022/07/20 02:41:11;;;;;;;5.30;4.07;;;15.80;99.70;;;;;;20976444;28;20036;-59
2022/07/20 02:51:13;;;;;;;6.03;4.00;;;15.70;99.30;;;;;;21043918;28;20027;-59
2022/07/20 03:01:16;;;;;;;5.47;3.85;;;15.60;99.00;;;;;;21058377;28;20089;-59
2022/07/20 03:11:18;;;;;;;4.72;4.15;;;15.60;98.40;;;;;;21056760;28;20451;-58
2022/07/20 03:21:21;;;;;;;4.88;4.13;;;15.60;97.90;;;;;;21056412;28;20044;-58
2022/07/20 03:31:23;;;;;;;4.75;3.85;;;15.70;97.40;;;;;;21056990;28;20113;-59
2022/07/20 03:41:25;;;;;;;4.50;3.58;;;15.80;97.00;;;;;;21055284;28;20036;-59
2022/07/20 03:51:28;;;;;;;5.85;3.70;;;15.70;97.00;;;;;;20984063;28;20062;-59
2022/07/20 04:01:30;;;;;;;6.90;3.97;;;15.70;97.20;;;;;;20986472;28;20036;-59
2022/07/20 04:11:33;;;;;;;4.82;3.65;;;15.60;97.40;;;;;;20969869;28;20428;-57
2022/07/20 04:21:35;;;;;;;5.95;3.80;;;15.80;97.60;;;;;;20967804;28;20090;-59
2022/07/20 04:31:37;;;;;;;5.38;3.22;;;15.70;98.20;;;;;;20968428;28;20093;-59
2022/07/20 04:41:41;;;;;;;5.22;3.70;;;15.80;98.40;;;;;;20967237;28;20066;-59
2022/07/20 04:51:44;;;;;;;3.67;3.00;;;16.00;98.80;;;;;;20978321;28;20106;-58
2022/07/20 05:01:49;;;;;;;4.95;3.30;;;16.20;98.70;;;;;;20966875;28;20493;-59
2022/07/20 05:11:51;;;;;;;5.53;3.22;;;16.40;99.60;;;;;;20966079;28;20417;-59
2022/07/20 05:21:55;;;;;;;3.72;3.15;;;16.60;99.90;;;;;;20935905;28;20077;-59
2022/07/20 05:31:57;;;;;;;4.65;3.30;;;16.90;99.90;;;;;;20885944;28;20108;-58
2022/07/20 05:42:00;;;;;;;6.38;3.22;;;17.00;99.90;;;;;;20915000;28;20112;-59
2022/07/20 05:52:03;;;;;;;4.95;3.22;;;17.20;99.90;;;;;;20971497;28;20507;-59
2022/07/20 06:02:07;;;;;;;5.30;3.05;;;17.50;99.90;;;;;;20979029;28;20036;-59
2022/07/20 06:12:10;;;;;;;3.95;3.08;;;17.90;99.70;;;;;;20978675;28;20566;-60
2022/07/20 06:22:12;;;;;;;4.38;3.13;;;18.30;98.80;;;;;;20994274;28;20375;-58
2022/07/20 06:32:15;;;;;;;3.85;3.20;;;19.80;97.40;;;;;;20976993;28;20040;-60
2022/07/20 06:42:18;;;;;;;4.43;3.42;;;24.00;90.10;;;;;;20975968;28;20408;-60
2022/07/20 06:52:20;;;;;;;3.60;2.90;;;27.20;78.50;;;;;;21052428;28;20028;-61
2022/07/20 07:02:23;;;;;;;3.95;3.38;;;29.70;71.30;;;;;;21058009;28;20035;-59
2022/07/20 07:12:26;;;;;;;4.60;4.15;;;31.10;66.40;;;;;;21056983;28;20563;-60
2022/07/20 07:22:30;;;;;;;4.20;3.80;;;31.80;62.50;;;;;;21056508;28;20097;-61
2022/07/20 07:32:32;;;;;;;4.38;3.97;;;32.50;60.80;;;;;;21055945;28;20569;-60
2022/07/20 07:42:35;;;;;;;6.07;4.18;;;32.50;61.30;;;;;;21055537;28;20036;-60
2022/07/20 07:52:38;;;;;;;7.82;4.50;;;32.40;60.80;;;;;;20945308;28;20056;-60
2022/07/20 08:02:41;;;;;;;4.35;3.95;;;32.20;60.80;;;;;;20903730;28;20029;-61
2022/07/20 08:12:44;;;;;;;5.47;4.70;;;32.20;61.50;;;;;;20886491;28;20536;-60
2022/07/20 08:22:46;;;;;;;6.67;4.80;;;32.40;60.30;;;;;;20871235;28;20470;-61
2022/07/20 08:32:48;;;;;;;4.97;3.90;;;32.30;60.30;;;;;;20905547;28;20089;-61
2022/07/20 08:42:51;;;;;;;7.80;4.32;;;32.00;61.50;;;;;;20967546;28;20074;-61
2022/07/20 08:52:54;;;;;;;4.60;4.20;;;32.20;61.90;;;;;;21049009;28;20032;-60
2022/07/20 09:03:01;;;;;;;5.97;4.40;;;32.00;62.30;;;;;;21050346;28;20035;-60
2022/07/20 09:13:03;;;;;;;8.35;3.95;;;32.20;60.70;;;;;;21062352;28;20447;-61
2022/07/20 09:23:12;;;;;;;6.57;3.53;;;32.20;61.70;;;;;;21067186;28;20117;-61
2022/07/20 09:33:15;;;;;;;7.07;3.85;;;32.30;61.50;;;;;;21065123;28;20036;-61
2022/07/20 09:43:26;;;;;;;10.02;3.85;;;32.30;61.10;;;;;;21062880;28;20032;-61
2022/07/20 09:53:28;;;;;;;8.27;4.50;;;32.60;59.40;;;;;;20980657;28;20024;-60
2022/07/20 10:03:32;;;;;;;5.82;3.80;;;33.10;59.20;;;;;;20979327;28;20432;-61
2022/07/20 10:13:35;;;;;;;5.68;3.15;;;32.90;59.60;;;;;;20995099;28;20052;-61
2022/07/20 10:23:38;;;;;;;6.22;3.50;;;32.90;60.90;;;;;;20977013;28;20037;-61
2022/07/20 10:33:40;;;;;;;10.40;3.72;;;32.80;61.50;;;;;;20976759;28;20029;-61
2022/07/20 10:43:43;;;;;;;5.13;3.80;;;32.90;62.10;;;;;;20965269;28;20024;-60
2022/07/20 10:53:45;;;;;;;7.22;3.92;;;33.10;60.60;;;;;;21059310;28;20028;-61
2022/07/20 11:03:49;;;;;;;4.72;3.90;;;32.60;61.50;;;;;;21042161;28;20087;-61
2022/07/20 11:13:52;;;;;;;6.80;3.78;;;32.80;60.40;;;;;;21057513;28;20036;-61
2022/07/20 11:23:54;;;;;;;5.57;3.00;;;32.80;59.60;;;;;;21057100;28;20040;-61
2022/07/20 11:33:58;;;;;;;6.30;3.22;;;32.30;61.00;;;;;;21055630;28;20438;-60
2022/07/20 11:44:03;;;;;;;5.80;3.40;;;33.00;58.70;;;;;;21047210;28;20024;-61
2022/07/20 11:54:06;;;;;;;9.68;3.22;;;33.00;58.50;;;;;;20988485;28;20465;-61
2022/07/20 12:04:13;;;;;;;6.65;3.10;;;33.20;57.60;;;;;;20969995;28;20032;-61
2022/07/20 12:14:29;;;;;;;5.30;3.45;;;33.20;58.40;;;;;;20985073;28;20040;-61
2022/07/20 12:24:48;;;;;;;;;;;32.90;58.40;;;;;;20969030;28;20086;-61
2022/07/20 12:34:53;;;;;;;7.60;3.90;;;32.40;58.50;;;;;;20967851;28;19912;-61
2022/07/20 12:45:04;;;;;;;6.40;3.35;;;32.60;58.50;;;;;;20982302;28;20043;-61
2022/07/20 12:55:07;;;;;;;6.82;3.40;;;32.50;58.60;;;;;;21051804;28;20112;-61
2022/07/20 13:05:10;;;;;;;6.47;4.05;;;33.10;58.60;;;;;;21050610;28;20111;-61
2022/07/20 13:15:13;;;;;;;6.45;4.32;;;33.60;56.20;;;;;;21033684;28;20052;-61
2022/07/20 13:25:18;;;;;;;4.32;3.92;;;33.70;57.90;;;;;;21050774;28;20143;-61
2022/07/20 13:35:21;;;;;;;5.78;4.13;;;33.40;57.50;;;;;;20970084;28;20029;-60
2022/07/20 13:45:23;;;;;;;6.65;4.68;;;33.70;57.20;;;;;;20922141;28;20102;-61
2022/07/20 13:55:26;;;;;;;6.82;4.35;;;33.60;57.70;;;;;;20949997;28;20498;-61
2022/07/20 14:05:28;;;;;;;6.05;4.57;;;33.40;57.40;;;;;;20897756;28;20037;-61
2022/07/20 14:15:31;;;;;;;7.15;4.45;;;33.30;58.20;;;;;;20895503;28;20045;-61
2022/07/20 14:25:36;;;;;;;5.85;4.50;;;33.50;57.40;;;;;;20878971;28;20611;-61
2022/07/20 14:35:38;;;;;;;8.38;4.97;;;33.40;58.30;;;;;;20894252;28;20086;-61
2022/07/20 14:45:41;;;;;;;13.40;4.95;;;33.60;57.70;;;;;;20936898;28;20040;-61
2022/07/20 14:55:44;;;;;;;5.07;4.50;;;33.70;57.80;;;;;;21050687;28;20085;-61
2022/07/20 15:05:46;;;;;;;5.28;4.63;;;34.30;57.20;;;;;;21058068;28;20036;-61
2022/07/20 15:15:49;;;;;;;8.67;4.77;;;34.80;56.70;;;;;;21057442;28;20101;-61
2022/07/20 15:25:54;;;;;;;8.80;4.57;;;35.10;55.40;;;;;;21056856;28;20097;-61
2022/07/20 15:35:57;;;;;;;5.00;4.50;;;35.10;55.60;;;;;;21055681;28;20069;-61
2022/07/20 15:46:02;;;;;;;6.63;4.37;;;34.80;55.20;;;;;;21030430;28;20048;-61
2022/07/20 15:56:05;;;;;;;5.80;4.30;;;34.70;55.10;;;;;;20970403;28;20070;-61
2022/07/20 16:06:08;;;;;;;6.57;4.63;;;34.00;55.50;;;;;;20971127;28;20036;-63
2022/07/20 16:16:13;;;;;;;8.20;4.20;;;32.20;55.40;;;;;;20952698;28;20053;-60
2022/07/20 16:26:21;;;;;;;7.50;3.80;;;30.90;57.50;;;;;;20986274;28;20048;-59
2022/07/20 16:36:32;;;;;;;9.52;4.13;;;29.10;60.30;;;;;;20967397;28;20047;-59
2022/07/20 16:46:51;;;;;;;7.60;4.30;;;27.90;61.90;;;;;;20998839;28;20027;-58
2022/07/20 16:56:55;;;;;;;15.52;4.47;;;26.80;64.30;;;;;;21050668;28;20115;-60
2022/07/20 17:07:01;;;;;;;19.48;4.50;;;25.20;69.50;;;;;;21026281;28;20477;-60
2022/07/20 17:17:09;;;;;;;10.07;4.10;;;24.00;71.80;;;;;;20959310;28;20056;-60
2022/07/20 17:27:11;;;;;;;16.67;4.22;;;23.10;74.40;;;;;;20966793;28;20558;-59
2022/07/20 17:37:13;;;;;;;18.80;4.88;;;22.50;76.90;;;;;;20982532;28;20037;-58
2022/07/20 17:47:16;;;;;;;24.52;4.07;;;22.10;76.80;;;;;;20981030;28;20086;-60
2022/07/20 17:57:18;;;;;;;33.58;5.07;;;21.80;77.80;;;;;;21004312;28;20054;-59
2022/07/20 18:07:21;;;;;;;40.05;6.47;;;;;;;;;;21063089;28;20442;-60
2022/07/20 18:17:26;;;;;;;32.28;5.05;;;21.10;79.50;;;;;;21062013;28;20405;-60
2022/07/20 18:27:29;;;;;;;9.77;4.25;;;20.90;80.80;;;;;;21061358;28;20036;-60
2022/07/20 18:37:34;;;;;;;5.63;3.83;;;20.60;79.70;;;;;;21060762;28;20447;-60
2022/07/20 18:47:36;;;;;;;5.70;3.88;;;20.60;80.70;;;;;;21058555;28;20109;-58
2022/07/20 18:57:39;;;;;;;5.88;3.67;;;20.20;81.70;;;;;;21030604;28;20485;-60
2022/07/20 19:07:41;;;;;;;6.30;3.90;;;20.00;81.30;;;;;;20974286;28;20074;-59
2022/07/20 19:17:44;;;;;;;6.72;3.90;;;19.60;83.20;;;;;;20973573;28;20074;-60
2022/07/20 19:27:48;;;;;;;8.20;3.80;;;19.40;84.40;;;;;;20972595;28;20036;-59
2022/07/20 19:37:50;;;;;;;7.93;4.20;;;19.00;85.40;;;;;;20971568;28;20481;-60
2022/07/20 19:47:56;;;;;;;6.68;3.83;;;18.70;86.60;;;;;;20971299;28;20024;-60
2022/07/20 19:57:58;;;;;;;5.22;4.10;;;18.50;87.30;;;;;;21001026;28;20048;-60
2022/07/20 20:08:01;;;;;;;5.90;3.70;;;18.40;87.80;;;;;;21054162;28;20036;-58
2022/07/20 20:18:04;;;;;;;5.43;3.67;;;18.30;88.60;;;;;;21052006;28;20101;-59
2022/07/20 20:28:08;;;;;;;6.88;3.70;;;18.30;89.10;;;;;;21046522;28;20036;-60
2022/07/20 20:38:11;;;;;;;5.35;3.72;;;18.20;89.90;;;;;;21001459;28;20048;-58
2022/07/20 20:48:14;;;;;;;6.00;4.05;;;17.90;90.20;;;;;;20966793;28;20106;-60
2022/07/20 20:58:18;;;;;;;9.32;4.15;;;17.70;90.60;;;;;;20998500;28;20545;-59
2022/07/20 21:08:20;;;;;;;7.32;4.10;;;17.60;91.00;;;;;;21048248;28;20085;-59
2022/07/20 21:18:23;;;;;;;6.90;3.83;;;17.90;90.40;;;;;;21048667;28;20074;-59
2022/07/20 21:28:27;;;;;;;7.18;4.15;;;17.80;90.80;;;;;;21049065;28;20097;-60
2022/07/20 21:38:29;;;;;;;7.28;4.38;;;17.60;91.30;;;;;;21048767;28;20051;-59
2022/07/20 21:48:32;;;;;;;10.15;4.50;;;17.50;91.50;;;;;;21047359;28;20080;-59
2022/07/20 21:58:35;;;;;;;5.80;4.32;;;17.40;91.80;;;;;;21012126;28;20044;-60
2022/07/20 22:08:37;;;;;;;10.20;5.25;;;17.30;92.50;;;;;;20963974;28;20090;-59
2022/07/20 22:18:40;;;;;;;6.97;4.75;;;17.20;92.70;;;;;;20971980;28;20557;-59
2022/07/20 22:28:43;;;;;;;8.80;4.82;;;17.30;92.60;;;;;;20977966;28;20028;-60
2022/07/20 22:38:46;;;;;;;7.82;4.30;;;17.50;92.50;;;;;;20977302;28;20036;-59
2022/07/20 22:48:48;;;;;;;6.97;4.68;;;17.40;92.20;;;;;;20977017;28;20089;-59
2022/07/20 22:58:51;;;;;;;9.38;4.97;;;17.70;91.80;;;;;;21012775;28;20032;-59
2022/07/20 23:08:53;;;;;;;7.28;5.00;;;17.60;92.60;;;;;;21059393;28;20036;-60
2022/07/20 23:18:56;;;;;;;7.07;4.60;;;17.40;92.30;;;;;;21057081;28;20148;-60
2022/07/20 23:28:59;;;;;;;10.65;4.30;;;17.60;92.30;;;;;;21055936;28;20089;-57
2022/07/20 23:39:02;;;;;;;10.82;4.70;;;17.20;92.90;;;;;;21056315;28;20105;-60
2022/07/20 23:49:04;;;;;;;8.35;4.78;;;17.10;93.20;;;;;;21055357;28;20035;-59
2022/07/20 23:59:07;;;;;;;7.47;4.30;;;16.90;93.80;;;;;;21014520;28;20551;-59
